sensor_id;sensor_type;location;lat;lon;timestamp;P1;durP1;ratioP1;P2;durP2;ratioP2
61108;SDS011;46995;55.740;37.402;2023-01-29T00:01:49;27.47;;;13.83;;
61108;SDS011;46995;55.740;37.402;2023-01-29T00:04:15;25.73;;;13.10;;
61108;SDS011;46995;55.740;37.402;2023-01-29T00:06:41;33.53;;;15.05;;
61108;SDS011;46995;55.740;37.402;2023-01-29T00:09:07;28.15;;;13.93;;
61108;SDS011;46995;55.740;37.402;2023-01-29T00:11:33;35.00;;;14.23;;
61108;SDS011;46995;55.740;37.402;2023-01-29T00:13:59;27.98;;;13.93;;
61108;SDS011;46995;55.740;37.402;2023-01-29T00:16:27;30.00;;;14.85;;
61108;SDS011;46995;55.740;37.402;2023-01-29T00:18:53;32.80;;;15.30;;
61108;SDS011;46995;55.740;37.402;2023-01-29T00:21:19;29.38;;;14.93;;
61108;SDS011;46995;55.740;37.402;2023-01-29T00:23:46;22.73;;;12.60;;
61108;SDS011;46995;55.740;37.402;2023-01-29T00:26:13;35.20;;;17.73;;
61108;SDS011;46995;55.740;37.402;2023-01-29T00:28:42;17.63;;;8.73;;
61108;SDS011;46995;55.740;37.402;2023-01-29T00:31:09;17.48;;;9.52;;
61108;SDS011;46995;55.740;37.402;2023-01-29T00:33:37;15.73;;;9.05;;
61108;SDS011;46995;55.740;37.402;2023-01-29T00:36:04;17.27;;;8.70;;
61108;SDS011;46995;55.740;37.402;2023-01-29T00:38:31;14.07;;;6.88;;
61108;SDS011;46995;55.740;37.402;2023-01-29T00:41:08;16.83;;;8.73;;
61108;SDS011;46995;55.740;37.402;2023-01-29T00:43:54;15.87;;;7.87;;
61108;SDS011;46995;55.740;37.402;2023-01-29T00:46:38;16.20;;;7.47;;
61108;SDS011;46995;55.740;37.402;2023-01-29T00:49:05;15.18;;;7.50;;
61108;SDS011;46995;55.740;37.402;2023-01-29T00:51:31;9.83;;;6.07;;
61108;SDS011;46995;55.740;37.402;2023-01-29T00:53:58;13.02;;;6.68;;
61108;SDS011;46995;55.740;37.402;2023-01-29T00:56:27;11.80;;;6.35;;
61108;SDS011;46995;55.740;37.402;2023-01-29T01:01:21;9.50;;;5.30;;
61108;SDS011;46995;55.740;37.402;2023-01-29T01:04:07;10.15;;;5.13;;
61108;SDS011;46995;55.740;37.402;2023-01-29T01:06:36;9.45;;;5.07;;
61108;SDS011;46995;55.740;37.402;2023-01-29T01:09:03;11.25;;;5.28;;
61108;SDS011;46995;55.740;37.402;2023-01-29T01:11:48;10.40;;;4.85;;
61108;SDS011;46995;55.740;37.402;2023-01-29T01:14:16;10.35;;;4.85;;
61108;SDS011;46995;55.740;37.402;2023-01-29T01:16:46;10.02;;;5.10;;
61108;SDS011;46995;55.740;37.402;2023-01-29T01:19:13;8.98;;;5.00;;
61108;SDS011;46995;55.740;37.402;2023-01-29T01:21:40;9.43;;;4.75;;
61108;SDS011;46995;55.740;37.402;2023-01-29T01:24:10;7.53;;;4.55;;
61108;SDS011;46995;55.740;37.402;2023-01-29T01:26:39;8.05;;;4.60;;
61108;SDS011;46995;55.740;37.402;2023-01-29T01:29:08;8.38;;;4.78;;
61108;SDS011;46995;55.740;37.402;2023-01-29T01:31:34;12.77;;;4.90;;
61108;SDS011;46995;55.740;37.402;2023-01-29T01:36:29;9.75;;;4.70;;
61108;SDS011;46995;55.740;37.402;2023-01-29T01:41:23;9.93;;;4.95;;
61108;SDS011;46995;55.740;37.402;2023-01-29T01:46:20;8.98;;;5.03;;
61108;SDS011;46995;55.740;37.402;2023-01-29T01:49:32;10.13;;;5.50;;
61108;SDS011;46995;55.740;37.402;2023-01-29T01:51:45;11.27;;;5.60;;
61108;SDS011;46995;55.740;37.402;2023-01-29T01:54:15;11.13;;;5.85;;
61108;SDS011;46995;55.740;37.402;2023-01-29T01:56:51;10.60;;;5.82;;
61108;SDS011;46995;55.740;37.402;2023-01-29T01:59:34;9.50;;;4.50;;
61108;SDS011;46995;55.740;37.402;2023-01-29T02:02:02;8.70;;;5.15;;
61108;SDS011;46995;55.740;37.402;2023-01-29T02:04:46;10.75;;;4.60;;
61108;SDS011;46995;55.740;37.402;2023-01-29T02:07:32;6.70;;;3.90;;
61108;SDS011;46995;55.740;37.402;2023-01-29T02:10:17;9.00;;;4.03;;
61108;SDS011;46995;55.740;37.402;2023-01-29T02:12:45;7.18;;;3.97;;
61108;SDS011;46995;55.740;37.402;2023-01-29T02:15:11;7.40;;;3.85;;
61108;SDS011;46995;55.740;37.402;2023-01-29T02:17:37;6.97;;;3.95;;
61108;SDS011;46995;55.740;37.402;2023-01-29T02:20:07;8.53;;;4.23;;
61108;SDS011;46995;55.740;37.402;2023-01-29T02:26:08;8.18;;;4.22;;
61108;SDS011;46995;55.740;37.402;2023-01-29T02:34:52;7.65;;;4.22;;
61108;SDS011;46995;55.740;37.402;2023-01-29T02:49:06;8.88;;;4.43;;
61108;SDS011;46995;55.740;37.402;2023-01-29T02:54:32;7.45;;;4.43;;
61108;SDS011;46995;55.740;37.402;2023-01-29T02:57:08;7.32;;;4.07;;
61108;SDS011;46995;55.740;37.402;2023-01-29T02:59:47;7.63;;;3.58;;
61108;SDS011;46995;55.740;37.402;2023-01-29T03:02:14;5.32;;;3.50;;
61108;SDS011;46995;55.740;37.402;2023-01-29T03:04:45;7.22;;;3.47;;
61108;SDS011;46995;55.740;37.402;2023-01-29T03:07:25;6.18;;;3.50;;
61108;SDS011;46995;55.740;37.402;2023-01-29T03:10:31;6.45;;;3.58;;
61108;SDS011;46995;55.740;37.402;2023-01-29T03:13:11;6.38;;;3.25;;
61108;SDS011;46995;55.740;37.402;2023-01-29T03:15:45;6.97;;;3.25;;
61108;SDS011;46995;55.740;37.402;2023-01-29T03:18:42;5.10;;;2.95;;
61108;SDS011;46995;55.740;37.402;2023-01-29T03:21:28;9.48;;;4.03;;
61108;SDS011;46995;55.740;37.402;2023-01-29T03:24:38;6.72;;;3.35;;
61108;SDS011;46995;55.740;37.402;2023-01-29T03:27:35;6.93;;;3.28;;
61108;SDS011;46995;55.740;37.402;2023-01-29T03:30:30;4.63;;;2.53;;
61108;SDS011;46995;55.740;37.402;2023-01-29T03:33:28;5.55;;;2.90;;
61108;SDS011;46995;55.740;37.402;2023-01-29T03:36:00;5.18;;;2.72;;
61108;SDS011;46995;55.740;37.402;2023-01-29T03:38:31;6.00;;;2.90;;
61108;SDS011;46995;55.740;37.402;2023-01-29T03:40:58;6.78;;;3.00;;
61108;SDS011;46995;55.740;37.402;2023-01-29T03:43:36;5.20;;;2.63;;
61108;SDS011;46995;55.740;37.402;2023-01-29T03:46:12;6.60;;;2.95;;
61108;SDS011;46995;55.740;37.402;2023-01-29T04:00:48;7.65;;;3.80;;
61108;SDS011;46995;55.740;37.402;2023-01-29T04:05:41;11.70;;;3.75;;
61108;SDS011;46995;55.740;37.402;2023-01-29T04:08:25;9.63;;;3.85;;
61108;SDS011;46995;55.740;37.402;2023-01-29T04:11:14;7.85;;;4.50;;
61108;SDS011;46995;55.740;37.402;2023-01-29T04:13:43;8.25;;;4.43;;
61108;SDS011;46995;55.740;37.402;2023-01-29T04:16:17;9.88;;;5.15;;
61108;SDS011;46995;55.740;37.402;2023-01-29T04:19:07;8.90;;;4.78;;
61108;SDS011;46995;55.740;37.402;2023-01-29T04:21:37;13.93;;;5.60;;
61108;SDS011;46995;55.740;37.402;2023-01-29T04:24:05;10.60;;;4.82;;
61108;SDS011;46995;55.740;37.402;2023-01-29T04:31:59;10.27;;;5.10;;
61108;SDS011;46995;55.740;37.402;2023-01-29T04:34:35;10.65;;;4.68;;
61108;SDS011;46995;55.740;37.402;2023-01-29T04:39:53;8.80;;;4.60;;
61108;SDS011;46995;55.740;37.402;2023-01-29T04:47:32;7.25;;;4.38;;
61108;SDS011;46995;55.740;37.402;2023-01-29T04:53:13;9.20;;;4.90;;
61108;SDS011;46995;55.740;37.402;2023-01-29T04:55:47;9.45;;;5.10;;
61108;SDS011;46995;55.740;37.402;2023-01-29T04:58:27;9.07;;;4.72;;
61108;SDS011;46995;55.740;37.402;2023-01-29T05:00:57;8.50;;;4.93;;
61108;SDS011;46995;55.740;37.402;2023-01-29T05:05:54;9.32;;;4.38;;
61108;SDS011;46995;55.740;37.402;2023-01-29T05:08:23;10.20;;;4.90;;
61108;SDS011;46995;55.740;37.402;2023-01-29T05:10:50;9.23;;;4.55;;
61108;SDS011;46995;55.740;37.402;2023-01-29T05:13:18;7.90;;;4.72;;
61108;SDS011;46995;55.740;37.402;2023-01-29T05:16:29;7.85;;;4.40;;
61108;SDS011;46995;55.740;37.402;2023-01-29T05:18:46;8.75;;;4.57;;
61108;SDS011;46995;55.740;37.402;2023-01-29T05:21:12;9.63;;;4.78;;
61108;SDS011;46995;55.740;37.402;2023-01-29T05:23:38;10.00;;;4.90;;
61108;SDS011;46995;55.740;37.402;2023-01-29T05:26:18;10.10;;;5.00;;
61108;SDS011;46995;55.740;37.402;2023-01-29T05:29:04;10.50;;;5.20;;
61108;SDS011;46995;55.740;37.402;2023-01-29T05:31:30;9.50;;;4.97;;
61108;SDS011;46995;55.740;37.402;2023-01-29T05:33:55;6.65;;;4.05;;
61108;SDS011;46995;55.740;37.402;2023-01-29T05:36:21;15.55;;;4.60;;
61108;SDS011;46995;55.740;37.402;2023-01-29T05:38:48;6.90;;;4.57;;
61108;SDS011;46995;55.740;37.402;2023-01-29T05:41:15;10.70;;;4.22;;
61108;SDS011;46995;55.740;37.402;2023-01-29T05:43:41;9.75;;;4.07;;
61108;SDS011;46995;55.740;37.402;2023-01-29T05:46:07;8.35;;;4.40;;
61108;SDS011;46995;55.740;37.402;2023-01-29T05:48:33;6.90;;;4.20;;
61108;SDS011;46995;55.740;37.402;2023-01-29T05:50:59;8.05;;;4.78;;
61108;SDS011;46995;55.740;37.402;2023-01-29T05:53:28;8.50;;;4.35;;
61108;SDS011;46995;55.740;37.402;2023-01-29T05:55:54;11.25;;;5.88;;
61108;SDS011;46995;55.740;37.402;2023-01-29T05:58:21;7.93;;;4.13;;
61108;SDS011;46995;55.740;37.402;2023-01-29T06:00:47;8.98;;;3.90;;
61108;SDS011;46995;55.740;37.402;2023-01-29T06:03:14;8.98;;;4.25;;
61108;SDS011;46995;55.740;37.402;2023-01-29T06:05:39;7.22;;;4.00;;
61108;SDS011;46995;55.740;37.402;2023-01-29T06:08:06;7.18;;;4.43;;
61108;SDS011;46995;55.740;37.402;2023-01-29T06:10:33;10.07;;;4.53;;
61108;SDS011;46995;55.740;37.402;2023-01-29T06:13:00;6.57;;;3.85;;
61108;SDS011;46995;55.740;37.402;2023-01-29T06:17:56;12.38;;;4.13;;
61108;SDS011;46995;55.740;37.402;2023-01-29T06:20:22;9.77;;;4.03;;
61108;SDS011;46995;55.740;37.402;2023-01-29T06:22:48;5.47;;;3.38;;
61108;SDS011;46995;55.740;37.402;2023-01-29T06:25:14;8.10;;;4.20;;
61108;SDS011;46995;55.740;37.402;2023-01-29T06:27:40;10.13;;;4.85;;
61108;SDS011;46995;55.740;37.402;2023-01-29T06:30:06;7.40;;;3.63;;
61108;SDS011;46995;55.740;37.402;2023-01-29T06:32:32;8.55;;;4.15;;
61108;SDS011;46995;55.740;37.402;2023-01-29T06:34:59;7.17;;;4.27;;
61108;SDS011;46995;55.740;37.402;2023-01-29T06:37:25;6.25;;;3.92;;
61108;SDS011;46995;55.740;37.402;2023-01-29T06:39:51;10.98;;;4.05;;
61108;SDS011;46995;55.740;37.402;2023-01-29T06:42:18;5.80;;;3.50;;
61108;SDS011;46995;55.740;37.402;2023-01-29T06:44:44;6.00;;;3.40;;
61108;SDS011;46995;55.740;37.402;2023-01-29T06:47:10;6.63;;;3.38;;
61108;SDS011;46995;55.740;37.402;2023-01-29T06:49:36;7.13;;;3.58;;
61108;SDS011;46995;55.740;37.402;2023-01-29T06:52:02;5.70;;;3.35;;
61108;SDS011;46995;55.740;37.402;2023-01-29T06:54:27;8.82;;;3.15;;
61108;SDS011;46995;55.740;37.402;2023-01-29T06:56:53;8.27;;;3.92;;
61108;SDS011;46995;55.740;37.402;2023-01-29T06:59:20;6.63;;;3.47;;
61108;SDS011;46995;55.740;37.402;2023-01-29T07:01:46;5.88;;;3.33;;
61108;SDS011;46995;55.740;37.402;2023-01-29T07:04:11;9.73;;;4.10;;
61108;SDS011;46995;55.740;37.402;2023-01-29T07:06:37;9.13;;;4.25;;
61108;SDS011;46995;55.740;37.402;2023-01-29T07:09:04;10.25;;;4.47;;
61108;SDS011;46995;55.740;37.402;2023-01-29T07:11:29;10.48;;;4.68;;
61108;SDS011;46995;55.740;37.402;2023-01-29T07:13:56;11.85;;;4.43;;
61108;SDS011;46995;55.740;37.402;2023-01-29T07:16:22;8.85;;;4.22;;
61108;SDS011;46995;55.740;37.402;2023-01-29T07:18:49;12.32;;;4.50;;
61108;SDS011;46995;55.740;37.402;2023-01-29T07:21:14;8.35;;;4.35;;
61108;SDS011;46995;55.740;37.402;2023-01-29T07:23:40;8.95;;;4.50;;
61108;SDS011;46995;55.740;37.402;2023-01-29T07:26:06;12.93;;;5.85;;
61108;SDS011;46995;55.740;37.402;2023-01-29T07:28:38;9.07;;;4.20;;
61108;SDS011;46995;55.740;37.402;2023-01-29T07:31:05;8.15;;;4.05;;
61108;SDS011;46995;55.740;37.402;2023-01-29T07:33:32;7.40;;;3.70;;
61108;SDS011;46995;55.740;37.402;2023-01-29T07:36:05;9.27;;;3.88;;
61108;SDS011;46995;55.740;37.402;2023-01-29T07:38:32;7.55;;;3.47;;
61108;SDS011;46995;55.740;37.402;2023-01-29T07:40:58;7.28;;;3.60;;
61108;SDS011;46995;55.740;37.402;2023-01-29T07:43:24;6.00;;;3.75;;
61108;SDS011;46995;55.740;37.402;2023-01-29T07:45:50;5.68;;;3.10;;
61108;SDS011;46995;55.740;37.402;2023-01-29T07:48:18;9.05;;;3.50;;
61108;SDS011;46995;55.740;37.402;2023-01-29T07:50:44;8.82;;;4.22;;
61108;SDS011;46995;55.740;37.402;2023-01-29T07:53:11;7.55;;;3.90;;
61108;SDS011;46995;55.740;37.402;2023-01-29T07:55:39;6.32;;;3.50;;
61108;SDS011;46995;55.740;37.402;2023-01-29T07:58:09;6.97;;;3.40;;
61108;SDS011;46995;55.740;37.402;2023-01-29T08:00:35;6.55;;;3.70;;
61108;SDS011;46995;55.740;37.402;2023-01-29T08:03:05;7.53;;;3.67;;
61108;SDS011;46995;55.740;37.402;2023-01-29T08:05:34;6.95;;;3.45;;
61108;SDS011;46995;55.740;37.402;2023-01-29T08:08:02;7.18;;;3.75;;
61108;SDS011;46995;55.740;37.402;2023-01-29T08:10:29;7.15;;;3.20;;
61108;SDS011;46995;55.740;37.402;2023-01-29T08:12:56;5.88;;;3.60;;
61108;SDS011;46995;55.740;37.402;2023-01-29T08:15:23;7.43;;;3.88;;
61108;SDS011;46995;55.740;37.402;2023-01-29T08:17:50;5.88;;;3.25;;
61108;SDS011;46995;55.740;37.402;2023-01-29T08:20:17;6.15;;;3.13;;
61108;SDS011;46995;55.740;37.402;2023-01-29T08:22:43;9.48;;;3.67;;
61108;SDS011;46995;55.740;37.402;2023-01-29T08:25:09;7.03;;;3.63;;
61108;SDS011;46995;55.740;37.402;2023-01-29T08:27:36;7.97;;;3.60;;
61108;SDS011;46995;55.740;37.402;2023-01-29T08:30:02;9.73;;;3.40;;
61108;SDS011;46995;55.740;37.402;2023-01-29T08:32:29;8.60;;;4.60;;
61108;SDS011;46995;55.740;37.402;2023-01-29T08:34:56;8.10;;;4.13;;
61108;SDS011;46995;55.740;37.402;2023-01-29T08:37:21;7.95;;;4.05;;
61108;SDS011;46995;55.740;37.402;2023-01-29T08:39:47;10.07;;;4.18;;
61108;SDS011;46995;55.740;37.402;2023-01-29T08:42:13;12.18;;;4.32;;
61108;SDS011;46995;55.740;37.402;2023-01-29T08:44:39;8.02;;;4.20;;
61108;SDS011;46995;55.740;37.402;2023-01-29T08:47:29;10.82;;;3.95;;
61108;SDS011;46995;55.740;37.402;2023-01-29T08:49:56;11.95;;;4.13;;
61108;SDS011;46995;55.740;37.402;2023-01-29T08:52:21;10.07;;;4.68;;
61108;SDS011;46995;55.740;37.402;2023-01-29T08:54:47;9.95;;;4.57;;
61108;SDS011;46995;55.740;37.402;2023-01-29T08:57:13;11.23;;;4.03;;
61108;SDS011;46995;55.740;37.402;2023-01-29T08:59:39;8.93;;;4.45;;
61108;SDS011;46995;55.740;37.402;2023-01-29T09:02:05;9.25;;;4.63;;
61108;SDS011;46995;55.740;37.402;2023-01-29T09:04:30;9.95;;;3.90;;
61108;SDS011;46995;55.740;37.402;2023-01-29T09:06:56;7.70;;;4.28;;
61108;SDS011;46995;55.740;37.402;2023-01-29T09:09:22;11.40;;;4.32;;
61108;SDS011;46995;55.740;37.402;2023-01-29T09:11:48;9.25;;;4.32;;
61108;SDS011;46995;55.740;37.402;2023-01-29T09:14:14;9.27;;;4.43;;
61108;SDS011;46995;55.740;37.402;2023-01-29T09:16:40;8.32;;;4.38;;
61108;SDS011;46995;55.740;37.402;2023-01-29T09:19:09;8.77;;;4.60;;
61108;SDS011;46995;55.740;37.402;2023-01-29T09:21:35;9.82;;;4.18;;
61108;SDS011;46995;55.740;37.402;2023-01-29T09:24:03;8.55;;;3.78;;
61108;SDS011;46995;55.740;37.402;2023-01-29T09:26:32;9.10;;;4.75;;
61108;SDS011;46995;55.740;37.402;2023-01-29T09:28:58;9.60;;;4.70;;
61108;SDS011;46995;55.740;37.402;2023-01-29T09:31:24;7.15;;;3.42;;
61108;SDS011;46995;55.740;37.402;2023-01-29T09:33:51;10.15;;;4.50;;
61108;SDS011;46995;55.740;37.402;2023-01-29T09:36:17;8.00;;;4.38;;
61108;SDS011;46995;55.740;37.402;2023-01-29T09:38:42;12.20;;;4.45;;
61108;SDS011;46995;55.740;37.402;2023-01-29T09:46:34;8.98;;;4.95;;
61108;SDS011;46995;55.740;37.402;2023-01-29T09:49:28;8.50;;;4.35;;
61108;SDS011;46995;55.740;37.402;2023-01-29T09:52:06;9.32;;;4.43;;
61108;SDS011;46995;55.740;37.402;2023-01-29T09:55:24;9.88;;;4.60;;
61108;SDS011;46995;55.740;37.402;2023-01-29T09:57:49;9.57;;;4.35;;
61108;SDS011;46995;55.740;37.402;2023-01-29T10:10:57;7.75;;;4.25;;
61108;SDS011;46995;55.740;37.402;2023-01-29T10:14:03;7.63;;;3.95;;
61108;SDS011;46995;55.740;37.402;2023-01-29T10:17:02;9.02;;;3.72;;
61108;SDS011;46995;55.740;37.402;2023-01-29T10:19:56;6.65;;;3.33;;
61108;SDS011;46995;55.740;37.402;2023-01-29T10:25:18;8.48;;;4.07;;
61108;SDS011;46995;55.740;37.402;2023-01-29T10:28:13;6.90;;;3.63;;
61108;SDS011;46995;55.740;37.402;2023-01-29T10:30:53;6.55;;;4.13;;
61108;SDS011;46995;55.740;37.402;2023-01-29T10:33:44;6.80;;;3.83;;
61108;SDS011;46995;55.740;37.402;2023-01-29T10:36:25;6.85;;;3.72;;
61108;SDS011;46995;55.740;37.402;2023-01-29T10:38:57;7.93;;;4.22;;
61108;SDS011;46995;55.740;37.402;2023-01-29T10:49:28;7.95;;;3.92;;
61108;SDS011;46995;55.740;37.402;2023-01-29T10:58:22;10.77;;;3.97;;
61108;SDS011;46995;55.740;37.402;2023-01-29T11:00:54;7.32;;;4.15;;
61108;SDS011;46995;55.740;37.402;2023-01-29T11:03:26;8.68;;;4.03;;
61108;SDS011;46995;55.740;37.402;2023-01-29T11:06:00;7.47;;;4.38;;
61108;SDS011;46995;55.740;37.402;2023-01-29T11:11:26;9.60;;;4.13;;
61108;SDS011;46995;55.740;37.402;2023-01-29T11:13:59;7.25;;;3.63;;
61108;SDS011;46995;55.740;37.402;2023-01-29T11:16:39;5.55;;;3.83;;
61108;SDS011;46995;55.740;37.402;2023-01-29T11:19:07;8.52;;;4.50;;
61108;SDS011;46995;55.740;37.402;2023-01-29T11:21:33;7.13;;;3.67;;
61108;SDS011;46995;55.740;37.402;2023-01-29T11:24:23;6.35;;;3.38;;
61108;SDS011;46995;55.740;37.402;2023-01-29T11:26:51;8.67;;;4.40;;
61108;SDS011;46995;55.740;37.402;2023-01-29T11:32:10;7.25;;;3.78;;
61108;SDS011;46995;55.740;37.402;2023-01-29T11:35:03;8.60;;;4.30;;
61108;SDS011;46995;55.740;37.402;2023-01-29T11:37:42;9.25;;;4.05;;
61108;SDS011;46995;55.740;37.402;2023-01-29T11:42:58;6.55;;;3.63;;
61108;SDS011;46995;55.740;37.402;2023-01-29T11:46:00;7.93;;;3.90;;
61108;SDS011;46995;55.740;37.402;2023-01-29T11:48:50;7.95;;;4.28;;
61108;SDS011;46995;55.740;37.402;2023-01-29T11:51:26;9.02;;;4.30;;
61108;SDS011;46995;55.740;37.402;2023-01-29T11:53:54;9.25;;;4.35;;
61108;SDS011;46995;55.740;37.402;2023-01-29T12:02:30;7.70;;;3.45;;
61108;SDS011;46995;55.740;37.402;2023-01-29T12:05:17;8.27;;;4.20;;
61108;SDS011;46995;55.740;37.402;2023-01-29T12:07:56;7.43;;;4.03;;
61108;SDS011;46995;55.740;37.402;2023-01-29T12:10:34;7.65;;;3.72;;
61108;SDS011;46995;55.740;37.402;2023-01-29T12:15:34;7.72;;;4.00;;
61108;SDS011;46995;55.740;37.402;2023-01-29T12:18:16;6.88;;;3.70;;
61108;SDS011;46995;55.740;37.402;2023-01-29T12:21:00;7.47;;;4.10;;
61108;SDS011;46995;55.740;37.402;2023-01-29T12:23:34;8.35;;;4.18;;
61108;SDS011;46995;55.740;37.402;2023-01-29T12:26:24;7.75;;;3.90;;
61108;SDS011;46995;55.740;37.402;2023-01-29T12:32:06;7.07;;;3.65;;
61108;SDS011;46995;55.740;37.402;2023-01-29T12:37:21;10.25;;;4.43;;
61108;SDS011;46995;55.740;37.402;2023-01-29T12:39:56;7.82;;;4.43;;
61108;SDS011;46995;55.740;37.402;2023-01-29T12:42:22;9.13;;;4.45;;
61108;SDS011;46995;55.740;37.402;2023-01-29T12:44:50;10.32;;;4.93;;
61108;SDS011;46995;55.740;37.402;2023-01-29T12:48:00;10.10;;;5.38;;
61108;SDS011;46995;55.740;37.402;2023-01-29T12:52:44;8.57;;;4.15;;
61108;SDS011;46995;55.740;37.402;2023-01-29T12:58:15;8.00;;;4.43;;
61108;SDS011;46995;55.740;37.402;2023-01-29T13:00:47;8.43;;;3.97;;
61108;SDS011;46995;55.740;37.402;2023-01-29T13:05:55;10.55;;;5.00;;
61108;SDS011;46995;55.740;37.402;2023-01-29T13:08:47;9.73;;;4.80;;
61108;SDS011;46995;55.740;37.402;2023-01-29T13:11:25;12.32;;;4.35;;
61108;SDS011;46995;55.740;37.402;2023-01-29T13:16:48;12.07;;;5.35;;
61108;SDS011;46995;55.740;37.402;2023-01-29T13:19:26;10.00;;;4.65;;
61108;SDS011;46995;55.740;37.402;2023-01-29T13:21:58;9.95;;;5.15;;
61108;SDS011;46995;55.740;37.402;2023-01-29T13:24:33;10.32;;;5.10;;
61108;SDS011;46995;55.740;37.402;2023-01-29T13:27:03;13.63;;;5.10;;
61108;SDS011;46995;55.740;37.402;2023-01-29T13:29:33;12.35;;;5.22;;
61108;SDS011;46995;55.740;37.402;2023-01-29T13:31:59;9.25;;;4.80;;
61108;SDS011;46995;55.740;37.402;2023-01-29T13:34:40;9.57;;;4.72;;
61108;SDS011;46995;55.740;37.402;2023-01-29T13:37:10;11.40;;;5.05;;
61108;SDS011;46995;55.740;37.402;2023-01-29T13:39:51;9.15;;;4.85;;
61108;SDS011;46995;55.740;37.402;2023-01-29T13:42:21;10.15;;;4.90;;
61108;SDS011;46995;55.740;37.402;2023-01-29T13:44:56;9.65;;;4.78;;
61108;SDS011;46995;55.740;37.402;2023-01-29T13:47:31;12.02;;;5.45;;
61108;SDS011;46995;55.740;37.402;2023-01-29T13:50:00;10.88;;;4.50;;
61108;SDS011;46995;55.740;37.402;2023-01-29T13:52:33;12.30;;;5.53;;
61108;SDS011;46995;55.740;37.402;2023-01-29T13:55:03;9.30;;;4.50;;
61108;SDS011;46995;55.740;37.402;2023-01-29T14:00:58;10.27;;;5.05;;
61108;SDS011;46995;55.740;37.402;2023-01-29T14:05:39;10.35;;;4.68;;
61108;SDS011;46995;55.740;37.402;2023-01-29T14:10:39;9.45;;;4.75;;
61108;SDS011;46995;55.740;37.402;2023-01-29T14:15:45;11.00;;;5.07;;
61108;SDS011;46995;55.740;37.402;2023-01-29T14:18:26;11.48;;;4.68;;
61108;SDS011;46995;55.740;37.402;2023-01-29T14:21:03;12.95;;;5.30;;
61108;SDS011;46995;55.740;37.402;2023-01-29T14:23:33;11.65;;;4.75;;
61108;SDS011;46995;55.740;37.402;2023-01-29T14:29:00;8.73;;;4.95;;
61108;SDS011;46995;55.740;37.402;2023-01-29T14:34:14;11.10;;;4.82;;
61108;SDS011;46995;55.740;37.402;2023-01-29T14:36:53;11.82;;;5.43;;
61108;SDS011;46995;55.740;37.402;2023-01-29T14:39:40;12.25;;;5.38;;
61108;SDS011;46995;55.740;37.402;2023-01-29T14:47:50;15.50;;;5.80;;
61108;SDS011;46995;55.740;37.402;2023-01-29T14:53:02;13.30;;;5.65;;
61108;SDS011;46995;55.740;37.402;2023-01-29T15:01:14;11.40;;;5.13;;
61108;SDS011;46995;55.740;37.402;2023-01-29T15:03:46;10.80;;;5.13;;
61108;SDS011;46995;55.740;37.402;2023-01-29T15:06:16;11.18;;;5.85;;
61108;SDS011;46995;55.740;37.402;2023-01-29T15:08:52;10.35;;;5.28;;
61108;SDS011;46995;55.740;37.402;2023-01-29T15:11:39;13.35;;;6.18;;
61108;SDS011;46995;55.740;37.402;2023-01-29T15:14:16;14.45;;;6.07;;
61108;SDS011;46995;55.740;37.402;2023-01-29T15:17:01;15.63;;;6.95;;
61108;SDS011;46995;55.740;37.402;2023-01-29T15:19:42;16.42;;;6.30;;
61108;SDS011;46995;55.740;37.402;2023-01-29T15:22:19;15.32;;;6.63;;
61108;SDS011;46995;55.740;37.402;2023-01-29T15:25:00;17.90;;;7.30;;
61108;SDS011;46995;55.740;37.402;2023-01-29T15:27:29;16.65;;;7.53;;
61108;SDS011;46995;55.740;37.402;2023-01-29T15:29:56;15.52;;;7.20;;
61108;SDS011;46995;55.740;37.402;2023-01-29T15:32:36;13.65;;;6.30;;
61108;SDS011;46995;55.740;37.402;2023-01-29T15:35:05;17.38;;;7.38;;
61108;SDS011;46995;55.740;37.402;2023-01-29T15:37:34;14.02;;;6.88;;
61108;SDS011;46995;55.740;37.402;2023-01-29T15:42:41;16.48;;;6.13;;
61108;SDS011;46995;55.740;37.402;2023-01-29T15:45:24;20.00;;;8.63;;
61108;SDS011;46995;55.740;37.402;2023-01-29T15:48:15;18.77;;;7.85;;
61108;SDS011;46995;55.740;37.402;2023-01-29T15:50:44;16.38;;;7.03;;
61108;SDS011;46995;55.740;37.402;2023-01-29T15:53:18;19.27;;;8.35;;
61108;SDS011;46995;55.740;37.402;2023-01-29T15:55:48;14.15;;;7.18;;
61108;SDS011;46995;55.740;37.402;2023-01-29T15:58:21;14.52;;;7.03;;
61108;SDS011;46995;55.740;37.402;2023-01-29T16:01:06;22.17;;;7.68;;
61108;SDS011;46995;55.740;37.402;2023-01-29T16:03:35;15.18;;;7.22;;
61108;SDS011;46995;55.740;37.402;2023-01-29T16:06:02;18.42;;;7.78;;
61108;SDS011;46995;55.740;37.402;2023-01-29T16:08:31;19.30;;;7.57;;
61108;SDS011;46995;55.740;37.402;2023-01-29T16:10:59;20.02;;;7.43;;
61108;SDS011;46995;55.740;37.402;2023-01-29T16:13:34;14.57;;;7.43;;
61108;SDS011;46995;55.740;37.402;2023-01-29T16:16:05;13.15;;;6.28;;
61108;SDS011;46995;55.740;37.402;2023-01-29T16:18:41;16.15;;;6.97;;
61108;SDS011;46995;55.740;37.402;2023-01-29T16:21:10;18.65;;;7.53;;
61108;SDS011;46995;55.740;37.402;2023-01-29T16:23:42;22.13;;;7.60;;
61108;SDS011;46995;55.740;37.402;2023-01-29T16:26:15;15.95;;;7.53;;
61108;SDS011;46995;55.740;37.402;2023-01-29T16:28:45;22.70;;;11.15;;
61108;SDS011;46995;55.740;37.402;2023-01-29T16:31:19;22.70;;;10.10;;
61108;SDS011;46995;55.740;37.402;2023-01-29T16:33:53;22.30;;;10.43;;
61108;SDS011;46995;55.740;37.402;2023-01-29T16:36:23;16.33;;;7.55;;
61108;SDS011;46995;55.740;37.402;2023-01-29T16:38:58;14.25;;;6.30;;
61108;SDS011;46995;55.740;37.402;2023-01-29T16:44:03;12.80;;;6.40;;
61108;SDS011;46995;55.740;37.402;2023-01-29T16:46:55;17.30;;;7.35;;
61108;SDS011;46995;55.740;37.402;2023-01-29T16:49:41;12.90;;;6.03;;
61108;SDS011;46995;55.740;37.402;2023-01-29T16:52:17;15.38;;;6.03;;
61108;SDS011;46995;55.740;37.402;2023-01-29T16:57:38;12.80;;;5.78;;
61108;SDS011;46995;55.740;37.402;2023-01-29T17:00:19;11.55;;;5.97;;
61108;SDS011;46995;55.740;37.402;2023-01-29T17:02:50;13.60;;;6.22;;
61108;SDS011;46995;55.740;37.402;2023-01-29T17:05:25;12.95;;;5.95;;
61108;SDS011;46995;55.740;37.402;2023-01-29T17:07:57;13.07;;;5.75;;
61108;SDS011;46995;55.740;37.402;2023-01-29T17:10:42;13.63;;;5.63;;
61108;SDS011;46995;55.740;37.402;2023-01-29T17:13:33;16.83;;;6.38;;
61108;SDS011;46995;55.740;37.402;2023-01-29T17:16:13;10.38;;;5.15;;
61108;SDS011;46995;55.740;37.402;2023-01-29T17:18:45;14.23;;;5.43;;
61108;SDS011;46995;55.740;37.402;2023-01-29T17:21:20;10.93;;;5.35;;
61108;SDS011;46995;55.740;37.402;2023-01-29T17:24:07;10.25;;;4.97;;
61108;SDS011;46995;55.740;37.402;2023-01-29T17:26:32;13.38;;;6.10;;
61108;SDS011;46995;55.740;37.402;2023-01-29T17:28:59;11.75;;;5.88;;
61108;SDS011;46995;55.740;37.402;2023-01-29T17:31:30;12.77;;;6.07;;
61108;SDS011;46995;55.740;37.402;2023-01-29T17:33:58;11.80;;;5.57;;
61108;SDS011;46995;55.740;37.402;2023-01-29T17:36:26;10.35;;;4.82;;
61108;SDS011;46995;55.740;37.402;2023-01-29T17:38:52;11.10;;;5.07;;
61108;SDS011;46995;55.740;37.402;2023-01-29T17:43:54;10.90;;;5.78;;
61108;SDS011;46995;55.740;37.402;2023-01-29T17:46:20;15.32;;;6.18;;
61108;SDS011;46995;55.740;37.402;2023-01-29T17:48:56;17.65;;;6.00;;
61108;SDS011;46995;55.740;37.402;2023-01-29T17:51:22;13.52;;;6.38;;
61108;SDS011;46995;55.740;37.402;2023-01-29T17:53:48;14.32;;;5.50;;
61108;SDS011;46995;55.740;37.402;2023-01-29T17:56:15;10.88;;;4.95;;
61108;SDS011;46995;55.740;37.402;2023-01-29T17:58:51;12.82;;;5.63;;